sensor_id;sensor_type;location;lat;lon;timestamp;temperature;humidity
44277;DHT22;29973;43.742;1.236;2023-03-31T00:00:43;13.50;99.90
44277;DHT22;29973;43.742;1.236;2023-03-31T00:03:09;13.40;99.90
44277;DHT22;29973;43.742;1.236;2023-03-31T00:05:38;13.50;99.90
44277;DHT22;29973;43.742;1.236;2023-03-31T00:08:04;13.30;99.90
44277;DHT22;29973;43.742;1.236;2023-03-31T00:10:32;13.30;99.90
44277;DHT22;29973;43.742;1.236;2023-03-31T00:12:59;13.40;99.90
44277;DHT22;29973;43.742;1.236;2023-03-31T00:15:26;13.20;99.90
44277;DHT22;29973;43.742;1.236;2023-03-31T00:17:52;13.30;99.90
44277;DHT22;29973;43.742;1.236;2023-03-31T00:20:18;13.30;99.90
44277;DHT22;29973;43.742;1.236;2023-03-31T00:22:44;13.30;99.90
44277;DHT22;29973;43.742;1.236;2023-03-31T00:25:13;13.20;99.90
44277;DHT22;29973;43.742;1.236;2023-03-31T00:27:43;13.20;99.90
44277;DHT22;29973;43.742;1.236;2023-03-31T00:30:13;13.10;99.90
44277;DHT22;29973;43.742;1.236;2023-03-31T00:32:39;13.10;99.90
44277;DHT22;29973;43.742;1.236;2023-03-31T00:35:05;13.10;99.90
44277;DHT22;29973;43.742;1.236;2023-03-31T00:37:31;13.20;99.90
44277;DHT22;29973;43.742;1.236;2023-03-31T00:40:00;13.20;99.90
44277;DHT22;29973;43.742;1.236;2023-03-31T00:42:26;13.20;99.90
44277;DHT22;29973;43.742;1.236;2023-03-31T00:48:03;13.20;99.90
44277;DHT22;29973;43.742;1.236;2023-03-31T00:50:57;13.20;99.90
44277;DHT22;29973;43.742;1.236;2023-03-31T00:53:25;13.10;99.90
44277;DHT22;29973;43.742;1.236;2023-03-31T00:55:54;13.10;99.90
44277;DHT22;29973;43.742;1.236;2023-03-31T00:58:22;13.10;99.90
44277;DHT22;29973;43.742;1.236;2023-03-31T01:00:54;13.00;99.90
44277;DHT22;29973;43.742;1.236;2023-03-31T01:03:21;13.10;99.90
44277;DHT22;29973;43.742;1.236;2023-03-31T01:05:52;13.00;99.90
44277;DHT22;29973;43.742;1.236;2023-03-31T01:08:22;12.90;99.90
44277;DHT22;29973;43.742;1.236;2023-03-31T01:10:55;12.80;99.90
44277;DHT22;29973;43.742;1.236;2023-03-31T01:13:22;12.80;99.90
44277;DHT22;29973;43.742;1.236;2023-03-31T01:15:49;12.80;99.90
44277;DHT22;29973;43.742;1.236;2023-03-31T01:18:16;12.80;99.90
44277;DHT22;29973;43.742;1.236;2023-03-31T01:32:18;12.90;99.90
44277;DHT22;29973;43.742;1.236;2023-03-31T01:59:44;12.00;99.90
44277;DHT22;29973;43.742;1.236;2023-03-31T02:02:16;11.70;99.90
44277;DHT22;29973;43.742;1.236;2023-03-31T02:05:03;11.90;99.90
44277;DHT22;29973;43.742;1.236;2023-03-31T02:07:34;12.20;99.90
44277;DHT22;29973;43.742;1.236;2023-03-31T02:10:05;12.10;99.90
44277;DHT22;29973;43.742;1.236;2023-03-31T02:12:33;11.90;99.90
44277;DHT22;29973;43.742;1.236;2023-03-31T02:15:01;11.90;99.90
44277;DHT22;29973;43.742;1.236;2023-03-31T02:17:28;11.80;99.90
44277;DHT22;29973;43.742;1.236;2023-03-31T02:20:00;11.70;99.90
44277;DHT22;29973;43.742;1.236;2023-03-31T02:22:33;11.40;99.90
44277;DHT22;29973;43.742;1.236;2023-03-31T02:25:01;11.30;99.90
44277;DHT22;29973;43.742;1.236;2023-03-31T02:27:38;11.20;99.90
44277;DHT22;29973;43.742;1.236;2023-03-31T02:30:05;11.10;99.90
44277;DHT22;29973;43.742;1.236;2023-03-31T02:32:42;11.10;99.90
44277;DHT22;29973;43.742;1.236;2023-03-31T02:35:16;11.30;99.90
44277;DHT22;29973;43.742;1.236;2023-03-31T02:37:44;11.30;99.90
44277;DHT22;29973;43.742;1.236;2023-03-31T02:40:18;11.20;99.90
44277;DHT22;29973;43.742;1.236;2023-03-31T02:42:45;11.00;99.90
44277;DHT22;29973;43.742;1.236;2023-03-31T02:45:46;11.00;99.90
44277;DHT22;29973;43.742;1.236;2023-03-31T02:48:37;11.00;99.90
44277;DHT22;29973;43.742;1.236;2023-03-31T03:10:26;10.70;99.90
44277;DHT22;29973;43.742;1.236;2023-03-31T03:13:09;10.60;99.90
44277;DHT22;29973;43.742;1.236;2023-03-31T03:15:56;10.60;99.90
44277;DHT22;29973;43.742;1.236;2023-03-31T03:18:23;10.50;99.90
44277;DHT22;29973;43.742;1.236;2023-03-31T03:20:48;10.50;99.90
44277;DHT22;29973;43.742;1.236;2023-03-31T03:23:15;10.90;99.90
44277;DHT22;29973;43.742;1.236;2023-03-31T03:25:42;11.00;99.90
44277;DHT22;29973;43.742;1.236;2023-03-31T03:28:08;10.80;99.90
44277;DHT22;29973;43.742;1.236;2023-03-31T03:30:34;10.70;99.90
44277;DHT22;29973;43.742;1.236;2023-03-31T03:33:00;10.60;99.90
44277;DHT22;29973;43.742;1.236;2023-03-31T03:35:25;10.50;99.90
44277;DHT22;29973;43.742;1.236;2023-03-31T03:37:51;10.40;99.90
44277;DHT22;29973;43.742;1.236;2023-03-31T03:40:17;10.30;99.90
44277;DHT22;29973;43.742;1.236;2023-03-31T03:42:43;10.30;99.90
44277;DHT22;29973;43.742;1.236;2023-03-31T03:45:09;10.40;99.90
44277;DHT22;29973;43.742;1.236;2023-03-31T03:47:34;10.20;99.90
44277;DHT22;29973;43.742;1.236;2023-03-31T03:50:01;10.20;99.90
44277;DHT22;29973;43.742;1.236;2023-03-31T03:52:28;10.30;99.90
44277;DHT22;29973;43.742;1.236;2023-03-31T03:54:54;10.20;99.90
44277;DHT22;29973;43.742;1.236;2023-03-31T03:57:20;10.00;99.90
44277;DHT22;29973;43.742;1.236;2023-03-31T03:59:46;10.10;99.90
44277;DHT22;29973;43.742;1.236;2023-03-31T04:02:12;10.00;99.90
44277;DHT22;29973;43.742;1.236;2023-03-31T04:04:37;10.20;99.90
44277;DHT22;29973;43.742;1.236;2023-03-31T04:07:03;10.70;99.90
44277;DHT22;29973;43.742;1.236;2023-03-31T04:09:29;10.70;99.90
44277;DHT22;29973;43.742;1.236;2023-03-31T04:11:55;11.70;99.90
44277;DHT22;29973;43.742;1.236;2023-03-31T04:14:21;11.50;99.90
44277;DHT22;29973;43.742;1.236;2023-03-31T04:16:46;11.30;99.90
44277;DHT22;29973;43.742;1.236;2023-03-31T04:19:13;11.70;99.90
44277;DHT22;29973;43.742;1.236;2023-03-31T04:21:42;12.20;99.90
44277;DHT22;29973;43.742;1.236;2023-03-31T04:24:12;12.40;99.90
44277;DHT22;29973;43.742;1.236;2023-03-31T04:26:40;12.00;99.90
44277;DHT22;29973;43.742;1.236;2023-03-31T04:29:14;11.50;99.90
44277;DHT22;29973;43.742;1.236;2023-03-31T04:31:45;11.50;99.90
44277;DHT22;29973;43.742;1.236;2023-03-31T04:34:12;11.30;99.90
44277;DHT22;29973;43.742;1.236;2023-03-31T04:36:40;10.90;99.90
44277;DHT22;29973;43.742;1.236;2023-03-31T04:39:08;10.80;99.90
44277;DHT22;29973;43.742;1.236;2023-03-31T04:41:35;11.20;99.90
44277;DHT22;29973;43.742;1.236;2023-03-31T04:44:01;11.40;99.90
44277;DHT22;29973;43.742;1.236;2023-03-31T04:46:27;11.30;99.90
44277;DHT22;29973;43.742;1.236;2023-03-31T04:48:52;11.10;99.90
44277;DHT22;29973;43.742;1.236;2023-03-31T04:51:18;11.10;99.90
44277;DHT22;29973;43.742;1.236;2023-03-31T04:53:45;11.00;99.90
44277;DHT22;29973;43.742;1.236;2023-03-31T04:56:11;11.00;99.90
44277;DHT22;29973;43.742;1.236;2023-03-31T04:58:37;10.90;99.90
44277;DHT22;29973;43.742;1.236;2023-03-31T05:01:04;10.80;99.90
44277;DHT22;29973;43.742;1.236;2023-03-31T05:03:33;10.60;99.90
44277;DHT22;29973;43.742;1.236;2023-03-31T05:05:59;10.40;99.90
44277;DHT22;29973;43.742;1.236;2023-03-31T05:08:25;10.50;99.90
44277;DHT22;29973;43.742;1.236;2023-03-31T05:10:52;10.50;99.90
44277;DHT22;29973;43.742;1.236;2023-03-31T05:13:18;10.60;99.90
44277;DHT22;29973;43.742;1.236;2023-03-31T05:15:43;10.90;99.90
44277;DHT22;29973;43.742;1.236;2023-03-31T05:18:09;11.20;99.90
44277;DHT22;29973;43.742;1.236;2023-03-31T05:20:35;11.60;99.90
44277;DHT22;29973;43.742;1.236;2023-03-31T05:23:01;11.70;99.90
44277;DHT22;29973;43.742;1.236;2023-03-31T05:25:27;11.40;99.90
44277;DHT22;29973;43.742;1.236;2023-03-31T05:27:57;11.20;99.90
44277;DHT22;29973;43.742;1.236;2023-03-31T05:30:24;11.00;99.90
44277;DHT22;29973;43.742;1.236;2023-03-31T05:32:51;10.90;99.90
44277;DHT22;29973;43.742;1.236;2023-03-31T05:35:17;10.90;99.90
44277;DHT22;29973;43.742;1.236;2023-03-31T05:37:44;11.00;99.90
44277;DHT22;29973;43.742;1.236;2023-03-31T05:40:10;11.10;99.90
44277;DHT22;29973;43.742;1.236;2023-03-31T05:42:36;11.40;99.90
44277;DHT22;29973;43.742;1.236;2023-03-31T05:45:03;11.50;99.90
44277;DHT22;29973;43.742;1.236;2023-03-31T05:47:29;11.60;99.90
44277;DHT22;29973;43.742;1.236;2023-03-31T05:49:55;11.50;99.90
44277;DHT22;29973;43.742;1.236;2023-03-31T05:52:21;11.60;99.90
44277;DHT22;29973;43.742;1.236;2023-03-31T05:54:46;11.70;99.90
44277;DHT22;29973;43.742;1.236;2023-03-31T05:57:12;11.70;99.90
44277;DHT22;29973;43.742;1.236;2023-03-31T05:59:38;11.60;99.90
44277;DHT22;29973;43.742;1.236;2023-03-31T06:02:05;11.70;99.90
44277;DHT22;29973;43.742;1.236;2023-03-31T06:04:30;11.90;99.90
44277;DHT22;29973;43.742;1.236;2023-03-31T06:06:57;12.40;99.90
44277;DHT22;29973;43.742;1.236;2023-03-31T06:09:24;12.60;99.90
44277;DHT22;29973;43.742;1.236;2023-03-31T06:11:50;12.90;99.90
44277;DHT22;29973;43.742;1.236;2023-03-31T06:14:16;12.90;99.90
44277;DHT22;29973;43.742;1.236;2023-03-31T06:16:41;13.10;99.90
44277;DHT22;29973;43.742;1.236;2023-03-31T06:19:07;13.20;99.90
44277;DHT22;29973;43.742;1.236;2023-03-31T06:21:34;13.10;99.90
44277;DHT22;29973;43.742;1.236;2023-03-31T06:24:00;13.10;99.90
44277;DHT22;29973;43.742;1.236;2023-03-31T06:26:26;13.00;99.90
44277;DHT22;29973;43.742;1.236;2023-03-31T06:28:52;13.00;99.90
44277;DHT22;29973;43.742;1.236;2023-03-31T06:31:21;13.00;99.90
44277;DHT22;29973;43.742;1.236;2023-03-31T06:33:48;13.00;99.90
44277;DHT22;29973;43.742;1.236;2023-03-31T06:36:16;13.00;99.90
44277;DHT22;29973;43.742;1.236;2023-03-31T06:38:42;13.10;99.90
44277;DHT22;29973;43.742;1.236;2023-03-31T06:41:10;13.00;99.90
44277;DHT22;29973;43.742;1.236;2023-03-31T06:43:36;13.00;99.90
44277;DHT22;29973;43.742;1.236;2023-03-31T06:46:02;13.00;99.90
44277;DHT22;29973;43.742;1.236;2023-03-31T06:48:28;12.80;99.90
44277;DHT22;29973;43.742;1.236;2023-03-31T06:50:55;12.60;99.90
44277;DHT22;29973;43.742;1.236;2023-03-31T06:53:21;12.50;99.90
44277;DHT22;29973;43.742;1.236;2023-03-31T06:55:47;12.50;99.90
44277;DHT22;29973;43.742;1.236;2023-03-31T06:58:13;12.70;99.90
44277;DHT22;29973;43.742;1.236;2023-03-31T07:00:39;13.10;99.90
44277;DHT22;29973;43.742;1.236;2023-03-31T07:03:05;13.20;99.90
44277;DHT22;29973;43.742;1.236;2023-03-31T07:05:33;13.30;99.90
44277;DHT22;29973;43.742;1.236;2023-03-31T07:07:59;13.50;99.90
44277;DHT22;29973;43.742;1.236;2023-03-31T07:10:30;13.40;99.90
44277;DHT22;29973;43.742;1.236;2023-03-31T07:12:56;13.40;99.90
44277;DHT22;29973;43.742;1.236;2023-03-31T07:15:22;13.40;99.90
44277;DHT22;29973;43.742;1.236;2023-03-31T07:17:48;13.40;99.90
44277;DHT22;29973;43.742;1.236;2023-03-31T07:20:17;13.50;99.90
44277;DHT22;29973;43.742;1.236;2023-03-31T07:22:47;13.60;99.90
44277;DHT22;29973;43.742;1.236;2023-03-31T07:25:16;13.70;99.90
44277;DHT22;29973;43.742;1.236;2023-03-31T07:27:42;13.80;99.90
44277;DHT22;29973;43.742;1.236;2023-03-31T07:30:10;14.00;99.90
44277;DHT22;29973;43.742;1.236;2023-03-31T07:32:36;14.20;99.90
44277;DHT22;29973;43.742;1.236;2023-03-31T07:35:05;14.50;99.90
44277;DHT22;29973;43.742;1.236;2023-03-31T07:37:39;14.60;99.90
44277;DHT22;29973;43.742;1.236;2023-03-31T07:40:06;14.70;99.90
44277;DHT22;29973;43.742;1.236;2023-03-31T07:42:33;14.70;99.90
44277;DHT22;29973;43.742;1.236;2023-03-31T07:44:59;14.80;99.90
44277;DHT22;29973;43.742;1.236;2023-03-31T07:47:26;14.80;99.90
44277;DHT22;29973;43.742;1.236;2023-03-31T07:49:52;14.70;99.90
44277;DHT22;29973;43.742;1.236;2023-03-31T07:52:18;14.80;99.90
44277;DHT22;29973;43.742;1.236;2023-03-31T07:54:45;14.70;99.90
44277;DHT22;29973;43.742;1.236;2023-03-31T07:57:11;14.60;99.90
44277;DHT22;29973;43.742;1.236;2023-03-31T07:59:37;14.60;99.90
44277;DHT22;29973;43.742;1.236;2023-03-31T08:02:02;14.60;99.90
44277;DHT22;29973;43.742;1.236;2023-03-31T08:04:28;14.50;99.90
44277;DHT22;29973;43.742;1.236;2023-03-31T08:06:54;14.60;99.90
44277;DHT22;29973;43.742;1.236;2023-03-31T08:09:19;14.50;99.90
44277;DHT22;29973;43.742;1.236;2023-03-31T08:11:47;14.50;99.90
44277;DHT22;29973;43.742;1.236;2023-03-31T08:14:13;14.50;99.90
44277;DHT22;29973;43.742;1.236;2023-03-31T08:16:38;14.50;99.90
44277;DHT22;29973;43.742;1.236;2023-03-31T08:19:05;14.40;99.90
44277;DHT22;29973;43.742;1.236;2023-03-31T08:21:30;14.40;99.90
44277;DHT22;29973;43.742;1.236;2023-03-31T08:23:56;14.40;99.90
44277;DHT22;29973;43.742;1.236;2023-03-31T08:26:23;14.40;99.90
44277;DHT22;29973;43.742;1.236;2023-03-31T08:28:50;14.30;99.90
44277;DHT22;29973;43.742;1.236;2023-03-31T08:31:17;14.30;99.90
44277;DHT22;29973;43.742;1.236;2023-03-31T08:33:46;14.20;99.90
44277;DHT22;29973;43.742;1.236;2023-03-31T08:36:13;14.30;99.90
44277;DHT22;29973;43.742;1.236;2023-03-31T08:38:41;14.40;99.90
44277;DHT22;29973;43.742;1.236;2023-03-31T08:41:32;14.40;99.90
44277;DHT22;29973;43.742;1.236;2023-03-31T08:44:06;14.30;99.90
44277;DHT22;29973;43.742;1.236;2023-03-31T08:46:33;14.40;99.90
44277;DHT22;29973;43.742;1.236;2023-03-31T08:49:01;14.60;99.90
44277;DHT22;29973;43.742;1.236;2023-03-31T08:51:42;14.70;99.90
44277;DHT22;29973;43.742;1.236;2023-03-31T08:54:15;14.70;99.90
44277;DHT22;29973;43.742;1.236;2023-03-31T08:56:46;14.80;99.90
44277;DHT22;29973;43.742;1.236;2023-03-31T08:59:27;14.80;99.90
44277;DHT22;29973;43.742;1.236;2023-03-31T09:10:38;14.70;99.90
44277;DHT22;29973;43.742;1.236;2023-03-31T09:18:29;15.20;99.90
44277;DHT22;29973;43.742;1.236;2023-03-31T09:21:10;15.10;99.90
44277;DHT22;29973;43.742;1.236;2023-03-31T09:24:14;15.00;99.90
44277;DHT22;29973;43.742;1.236;2023-03-31T09:26:55;15.10;99.90
44277;DHT22;29973;43.742;1.236;2023-03-31T09:31:55;15.00;99.90
44277;DHT22;29973;43.742;1.236;2023-03-31T09:34:29;15.20;99.90
44277;DHT22;29973;43.742;1.236;2023-03-31T09:36:56;15.60;99.90
44277;DHT22;29973;43.742;1.236;2023-03-31T09:39:21;15.90;99.90
44277;DHT22;29973;43.742;1.236;2023-03-31T09:41:50;15.70;99.90
44277;DHT22;29973;43.742;1.236;2023-03-31T09:44:36;15.70;99.90
44277;DHT22;29973;43.742;1.236;2023-03-31T09:47:15;15.70;99.90
44277;DHT22;29973;43.742;1.236;2023-03-31T09:49:44;15.90;99.90
44277;DHT22;29973;43.742;1.236;2023-03-31T09:54:50;16.70;99.90
44277;DHT22;29973;43.742;1.236;2023-03-31T09:57:27;15.40;99.90
44277;DHT22;29973;43.742;1.236;2023-03-31T09:59:56;15.90;99.90
44277;DHT22;29973;43.742;1.236;2023-03-31T10:02:33;15.70;99.90
44277;DHT22;29973;43.742;1.236;2023-03-31T10:05:00;15.80;99.90
44277;DHT22;29973;43.742;1.236;2023-03-31T10:07:26;15.90;99.90
44277;DHT22;29973;43.742;1.236;2023-03-31T10:09:53;15.90;99.90
44277;DHT22;29973;43.742;1.236;2023-03-31T10:12:24;16.30;99.90
44277;DHT22;29973;43.742;1.236;2023-03-31T10:14:52;16.30;99.90
44277;DHT22;29973;43.742;1.236;2023-03-31T10:17:21;16.20;99.90
44277;DHT22;29973;43.742;1.236;2023-03-31T10:19:56;16.60;99.90
44277;DHT22;29973;43.742;1.236;2023-03-31T10:24:49;16.30;99.90
44277;DHT22;29973;43.742;1.236;2023-03-31T10:27:29;16.10;99.90
44277;DHT22;29973;43.742;1.236;2023-03-31T10:29:57;16.50;99.90
44277;DHT22;29973;43.742;1.236;2023-03-31T10:32:32;17.00;99.90
44277;DHT22;29973;43.742;1.236;2023-03-31T10:37:58;16.40;99.90
44277;DHT22;29973;43.742;1.236;2023-03-31T10:40:28;16.50;99.90
44277;DHT22;29973;43.742;1.236;2023-03-31T10:45:30;16.60;99.90
44277;DHT22;29973;43.742;1.236;2023-03-31T10:48:00;17.10;99.90
44277;DHT22;29973;43.742;1.236;2023-03-31T10:50:32;16.50;99.90
44277;DHT22;29973;43.742;1.236;2023-03-31T10:53:19;16.60;99.90
44277;DHT22;29973;43.742;1.236;2023-03-31T11:06:13;16.40;99.90
44277;DHT22;29973;43.742;1.236;2023-03-31T11:14:16;16.60;99.90
44277;DHT22;29973;43.742;1.236;2023-03-31T11:29:32;17.10;99.90
44277;DHT22;29973;43.742;1.236;2023-03-31T11:40:43;19.20;99.90
44277;DHT22;29973;43.742;1.236;2023-03-31T11:46:30;17.90;99.90
44277;DHT22;29973;43.742;1.236;2023-03-31T11:49:03;17.80;99.90
44277;DHT22;29973;43.742;1.236;2023-03-31T11:54:14;19.00;99.90
44277;DHT22;29973;43.742;1.236;2023-03-31T11:56:41;19.50;99.90
44277;DHT22;29973;43.742;1.236;2023-03-31T11:59:12;18.40;99.90
44277;DHT22;29973;43.742;1.236;2023-03-31T12:02:09;18.30;99.90
44277;DHT22;29973;43.742;1.236;2023-03-31T12:04:42;17.90;99.90
44277;DHT22;29973;43.742;1.236;2023-03-31T12:10:28;17.60;99.90
44277;DHT22;29973;43.742;1.236;2023-03-31T12:13:37;17.10;99.90
44277;DHT22;29973;43.742;1.236;2023-03-31T12:19:03;17.30;99.90
44277;DHT22;29973;43.742;1.236;2023-03-31T12:21:31;17.40;99.90
44277;DHT22;29973;43.742;1.236;2023-03-31T12:23:58;17.90;99.90
44277;DHT22;29973;43.742;1.236;2023-03-31T12:29:29;17.00;99.90
44277;DHT22;29973;43.742;1.236;2023-03-31T12:31:58;17.30;99.90
44277;DHT22;29973;43.742;1.236;2023-03-31T12:34:27;16.80;99.90
44277;DHT22;29973;43.742;1.236;2023-03-31T12:37:24;16.90;99.90
44277;DHT22;29973;43.742;1.236;2023-03-31T12:40:55;17.00;99.90
44277;DHT22;29973;43.742;1.236;2023-03-31T12:43:06;17.00;99.90
44277;DHT22;29973;43.742;1.236;2023-03-31T12:45:41;17.30;99.90
44277;DHT22;29973;43.742;1.236;2023-03-31T12:48:40;17.10;99.90
44277;DHT22;29973;43.742;1.236;2023-03-31T12:55:02;16.60;99.90
44277;DHT22;29973;43.742;1.236;2023-03-31T12:57:30;16.70;99.90
44277;DHT22;29973;43.742;1.236;2023-03-31T13:02:47;16.30;99.90
44277;DHT22;29973;43.742;1.236;2023-03-31T13:08:06;15.80;99.90
44277;DHT22;29973;43.742;1.236;2023-03-31T13:10:49;15.60;99.90
44277;DHT22;29973;43.742;1.236;2023-03-31T13:13:16;15.60;99.90
44277;DHT22;29973;43.742;1.236;2023-03-31T13:15:56;15.50;99.90
44277;DHT22;29973;43.742;1.236;2023-03-31T13:18:23;15.30;99.90
44277;DHT22;29973;43.742;1.236;2023-03-31T13:21:02;16.00;99.90
44277;DHT22;29973;43.742;1.236;2023-03-31T13:23:32;19.00;99.90
44277;DHT22;29973;43.742;1.236;2023-03-31T13:25:59;21.30;99.90
44277;DHT22;29973;43.742;1.236;2023-03-31T13:28:32;20.30;99.90
44277;DHT22;29973;43.742;1.236;2023-03-31T13:31:03;22.40;99.90
44277;DHT22;29973;43.742;1.236;2023-03-31T13:33:55;21.30;99.90
44277;DHT22;29973;43.742;1.236;2023-03-31T13:41:50;19.50;99.90
44277;DHT22;29973;43.742;1.236;2023-03-31T13:55:53;17.50;99.90
44277;DHT22;29973;43.742;1.236;2023-03-31T14:01:38;16.60;99.90
44277;DHT22;29973;43.742;1.236;2023-03-31T14:09:33;16.30;99.90
44277;DHT22;29973;43.742;1.236;2023-03-31T14:12:31;16.50;99.90
44277;DHT22;29973;43.742;1.236;2023-03-31T14:14:57;16.60;99.90
44277;DHT22;29973;43.742;1.236;2023-03-31T14:17:27;17.10;99.90
44277;DHT22;29973;43.742;1.236;2023-03-31T14:22:47;16.60;99.90
44277;DHT22;29973;43.742;1.236;2023-03-31T14:30:42;16.50;99.90
44277;DHT22;29973;43.742;1.236;2023-03-31T14:38:40;16.60;99.90
44277;DHT22;29973;43.742;1.236;2023-03-31T14:41:12;17.00;99.90
44277;DHT22;29973;43.742;1.236;2023-03-31T14:43:48;18.20;99.90
44277;DHT22;29973;43.742;1.236;2023-03-31T14:46:19;17.20;99.90
44277;DHT22;29973;43.742;1.236;2023-03-31T14:48:49;16.20;99.90
44277;DHT22;29973;43.742;1.236;2023-03-31T14:51:26;16.10;99.90
44277;DHT22;29973;43.742;1.236;2023-03-31T14:53:59;15.90;99.90
44277;DHT22;29973;43.742;1.236;2023-03-31T14:56:33;15.80;99.90
44277;DHT22;29973;43.742;1.236;2023-03-31T14:59:02;16.30;99.90
44277;DHT22;29973;43.742;1.236;2023-03-31T15:01:31;16.20;99.90
44277;DHT22;29973;43.742;1.236;2023-03-31T15:04:05;16.70;99.90
44277;DHT22;29973;43.742;1.236;2023-03-31T15:06:32;19.20;99.90
44277;DHT22;29973;43.742;1.236;2023-03-31T15:09:01;19.40;99.90
44277;DHT22;29973;43.742;1.236;2023-03-31T15:11:29;17.40;99.90
44277;DHT22;29973;43.742;1.236;2023-03-31T15:13:56;17.00;99.90
44277;DHT22;29973;43.742;1.236;2023-03-31T15:16:39;17.70;99.90
44277;DHT22;29973;43.742;1.236;2023-03-31T15:19:20;17.30;99.90
44277;DHT22;29973;43.742;1.236;2023-03-31T15:21:58;17.80;99.90
44277;DHT22;29973;43.742;1.236;2023-03-31T15:24:29;17.10;99.90
44277;DHT22;29973;43.742;1.236;2023-03-31T15:27:20;17.50;99.90
44277;DHT22;29973;43.742;1.236;2023-03-31T15:29:49;17.90;99.90
44277;DHT22;29973;43.742;1.236;2023-03-31T15:32:23;18.70;99.90
44277;DHT22;29973;43.742;1.236;2023-03-31T15:34:50;17.20;99.90
44277;DHT22;29973;43.742;1.236;2023-03-31T15:37:25;17.20;99.90
44277;DHT22;29973;43.742;1.236;2023-03-31T15:39:55;16.60;99.90
44277;DHT22;29973;43.742;1.236;2023-03-31T15:42:23;16.70;99.90
44277;DHT22;29973;43.742;1.236;2023-03-31T15:45:15;17.70;99.90
44277;DHT22;29973;43.742;1.236;2023-03-31T15:47:52;17.60;99.90
44277;DHT22;29973;43.742;1.236;2023-03-31T15:50:21;19.10;99.90
44277;DHT22;29973;43.742;1.236;2023-03-31T15:52:50;18.20;99.90
44277;DHT22;29973;43.742;1.236;2023-03-31T15:55:26;16.90;99.90
44277;DHT22;29973;43.742;1.236;2023-03-31T15:57:54;16.30;99.90
44277;DHT22;29973;43.742;1.236;2023-03-31T16:02:59;15.90;99.90
44277;DHT22;29973;43.742;1.236;2023-03-31T16:05:40;16.00;99.90
44277;DHT22;29973;43.742;1.236;2023-03-31T16:11:04;15.90;99.90
44277;DHT22;29973;43.742;1.236;2023-03-31T16:13:32;16.20;99.90
44277;DHT22;29973;43.742;1.236;2023-03-31T16:15:58;16.30;99.90
44277;DHT22;29973;43.742;1.236;2023-03-31T16:18:29;15.80;99.90
44277;DHT22;29973;43.742;1.236;2023-03-31T16:20:58;15.60;99.90
44277;DHT22;29973;43.742;1.236;2023-03-31T16:23:30;15.50;99.90
44277;DHT22;29973;43.742;1.236;2023-03-31T16:25:56;15.50;99.90
44277;DHT22;29973;43.742;1.236;2023-03-31T16:28:29;15.40;99.90
44277;DHT22;29973;43.742;1.236;2023-03-31T16:30:56;15.40;99.90
44277;DHT22;29973;43.742;1.236;2023-03-31T16:33:26;15.50;99.90
44277;DHT22;29973;43.742;1.236;2023-03-31T16:35:53;17.40;99.90
44277;DHT22;29973;43.742;1.236;2023-03-31T16:38:27;18.10;99.90
44277;DHT22;29973;43.742;1.236;2023-03-31T16:40:55;17.20;99.90
44277;DHT22;29973;43.742;1.236;2023-03-31T16:43:26;15.70;99.90
44277;DHT22;29973;43.742;1.236;2023-03-31T16:46:00;15.40;99.90
44277;DHT22;29973;43.742;1.236;2023-03-31T16:48:29;15.20;99.90
44277;DHT22;29973;43.742;1.236;2023-03-31T16:50:57;15.20;99.90
44277;DHT22;29973;43.742;1.236;2023-03-31T16:53:27;15.40;99.90
44277;DHT22;29973;43.742;1.236;2023-03-31T16:55:54;15.20;99.90
44277;DHT22;29973;43.742;1.236;2023-03-31T16:58:20;15.10;99.90
44277;DHT22;29973;43.742;1.236;2023-03-31T17:00:48;15.00;99.90
44277;DHT22;29973;43.742;1.236;2023-03-31T17:03:14;14.80;99.90
44277;DHT22;29973;43.742;1.236;2023-03-31T17:05:50;14.70;99.90
44277;DHT22;29973;43.742;1.236;2023-03-31T17:08:21;14.60;99.90
44277;DHT22;29973;43.742;1.236;2023-03-31T17:11:02;14.70;99.90
44277;DHT22;29973;43.742;1.236;2023-03-31T17:13:29;14.80;99.90
44277;DHT22;29973;43.742;1.236;2023-03-31T17:15:55;14.70;99.90
44277;DHT22;29973;43.742;1.236;2023-03-31T17:18:21;14.60;99.90
44277;DHT22;29973;43.742;1.236;2023-03-31T17:20:47;14.70;99.90
44277;DHT22;29973;43.742;1.236;2023-03-31T17:23:12;14.90;99.90
44277;DHT22;29973;43.742;1.236;2023-03-31T17:25:46;14.80;99.90
44277;DHT22;29973;43.742;1.236;2023-03-31T17:28:11;14.70;99.90
44277;DHT22;29973;43.742;1.236;2023-03-31T17:30:37;14.70;99.90
44277;DHT22;29973;43.742;1.236;2023-03-31T17:33:03;15.00;99.90
44277;DHT22;29973;43.742;1.236;2023-03-31T17:35:29;14.90;99.90
44277;DHT22;29973;43.742;1.236;2023-03-31T17:37:55;14.90;99.90
44277;DHT22;29973;43.742;1.236;2023-03-31T17:40:22;14.70;99.90
44277;DHT22;29973;43.742;1.236;2023-03-31T17:42:48;14.50;99.90
44277;DHT22;29973;43.742;1.236;2023-03-31T17:45:14;14.50;99.90
44277;DHT22;29973;43.742;1.236;2023-03-31T17:47:40;14.40;99.90
44277;DHT22;29973;43.742;1.236;2023-03-31T17:50:07;14.30;99.90
44277;DHT22;29973;43.742;1.236;2023-03-31T17:52:34;14.20;99.90
44277;DHT22;29973;43.742;1.236;2023-03-31T17:55:01;14.10;99.90
44277;DHT22;29973;43.742;1.236;2023-03-31T17:57:27;14.00;99.90
44277;DHT22;29973;43.742;1.236;2023-03-31T17:59:53;13.90;99.90
44277;DHT22;29973;43.742;1.236;2023-03-31T18:02:18;13.70;99.90
44277;DHT22;29973;43.742;1.236;2023-03-31T18:04:45;13.60;99.90
44277;DHT22;29973;43.742;1.236;2023-03-31T18:07:11;13.50;99.90
44277;DHT22;29973;43.742;1.236;2023-03-31T18:09:37;13.60;99.90
44277;DHT22;29973;43.742;1.236;2023-03-31T18:12:04;13.50;99.90
44277;DHT22;29973;43.742;1.236;2023-03-31T18:14:29;13.40;99.90
44277;DHT22;29973;43.742;1.236;2023-03-31T18:16:55;13.20;99.90
44277;DHT22;29973;43.742;1.236;2023-03-31T18:19:22;13.20;99.90
44277;DHT22;29973;43.742;1.236;2023-03-31T18:21:48;13.20;99.90
44277;DHT22;29973;43.742;1.236;2023-03-31T18:24:14;13.10;99.90
44277;DHT22;29973;43.742;1.236;2023-03-31T18:26:41;13.00;99.90
44277;DHT22;29973;43.742;1.236;2023-03-31T18:29:07;12.90;99.90
44277;DHT22;29973;43.742;1.236;2023-03-31T18:31:33;12.80;99.90
44277;DHT22;29973;43.742;1.236;2023-03-31T18:33:58;12.70;99.90
44277;DHT22;29973;43.742;1.236;2023-03-31T18:36:24;12.70;99.90
44277;DHT22;29973;43.742;1.236;2023-03-31T18:38:51;12.80;99.90
44277;DHT22;29973;43.742;1.236;2023-03-31T18:41:18;12.70;99.90
44277;DHT22;29973;43.742;1.236;2023-03-31T18:43:44;12.70;99.90
44277;DHT22;29973;43.742;1.236;2023-03-31T18:46:12;12.70;99.90
44277;DHT22;29973;43.742;1.236;2023-03-31T18:48:39;12.60;99.90
44277;DHT22;29973;43.742;1.236;2023-03-31T18:51:06;12.60;99.90
44277;DHT22;29973;43.742;1.236;2023-03-31T18:53:33;12.50;99.90
44277;DHT22;29973;43.742;1.236;2023-03-31T18:55:59;12.70;99.90
44277;DHT22;29973;43.742;1.236;2023-03-31T18:58:26;12.50;99.90